sensor_id;sensor_type;location;lat;lon;timestamp;pressure;altitude;pressure_sealevel;temperature;humidity
23446;BME280;11895;48.738;9.320;2023-03-15T00:00:53;59048.13;;;-144.85;100.00
23446;BME280;11895;48.738;9.320;2023-03-15T00:03:21;59048.13;;;-144.85;100.00
23446;BME280;11895;48.738;9.320;2023-03-15T00:05:52;59048.13;;;-144.85;100.00
23446;BME280;11895;48.738;9.320;2023-03-15T00:08:21;59048.13;;;-144.85;100.00
23446;BME280;11895;48.738;9.320;2023-03-15T00:10:48;59048.13;;;-144.85;100.00
23446;BME280;11895;48.738;9.320;2023-03-15T00:14:14;59048.13;;;-144.85;100.00
23446;BME280;11895;48.738;9.320;2023-03-15T00:17:40;59048.13;;;-144.85;100.00
23446;BME280;11895;48.738;9.320;2023-03-15T00:21:06;59048.13;;;-144.85;100.00
23446;BME280;11895;48.738;9.320;2023-03-15T00:24:32;59048.13;;;-144.85;100.00
23446;BME280;11895;48.738;9.320;2023-03-15T00:27:57;59048.13;;;-144.85;100.00
23446;BME280;11895;48.738;9.320;2023-03-15T00:31:24;59048.13;;;-144.85;100.00
23446;BME280;11895;48.738;9.320;2023-03-15T00:34:50;59048.13;;;-144.85;100.00
23446;BME280;11895;48.738;9.320;2023-03-15T00:38:18;59048.13;;;-144.85;100.00
23446;BME280;11895;48.738;9.320;2023-03-15T00:41:46;59048.13;;;-144.85;100.00
23446;BME280;11895;48.738;9.320;2023-03-15T00:45:12;59048.13;;;-144.85;100.00
23446;BME280;11895;48.738;9.320;2023-03-15T00:48:37;59048.13;;;-144.85;100.00
23446;BME280;11895;48.738;9.320;2023-03-15T00:52:06;59048.13;;;-144.85;100.00
23446;BME280;11895;48.738;9.320;2023-03-15T00:55:31;59048.13;;;-144.85;100.00
23446;BME280;11895;48.738;9.320;2023-03-15T00:58:57;59048.13;;;-144.85;100.00
23446;BME280;11895;48.738;9.320;2023-03-15T01:02:24;59048.13;;;-144.85;100.00
23446;BME280;11895;48.738;9.320;2023-03-15T01:05:50;59048.13;;;-144.85;100.00
23446;BME280;11895;48.738;9.320;2023-03-15T01:09:15;59048.13;;;-144.85;100.00
23446;BME280;11895;48.738;9.320;2023-03-15T01:12:42;59048.13;;;-144.85;100.00
23446;BME280;11895;48.738;9.320;2023-03-15T01:16:10;59048.13;;;-144.85;100.00
23446;BME280;11895;48.738;9.320;2023-03-15T01:19:37;59048.13;;;-144.85;100.00
23446;BME280;11895;48.738;9.320;2023-03-15T01:23:03;59048.13;;;-144.85;100.00
23446;BME280;11895;48.738;9.320;2023-03-15T01:26:28;59048.13;;;-144.85;100.00
23446;BME280;11895;48.738;9.320;2023-03-15T01:29:54;59048.13;;;-144.85;100.00
23446;BME280;11895;48.738;9.320;2023-03-15T01:33:20;59048.13;;;-144.85;100.00
23446;BME280;11895;48.738;9.320;2023-03-15T01:36:55;59048.13;;;-144.85;100.00
23446;BME280;11895;48.738;9.320;2023-03-15T01:40:26;59048.13;;;-144.85;100.00
23446;BME280;11895;48.738;9.320;2023-03-15T01:44:02;59048.13;;;-144.85;100.00
23446;BME280;11895;48.738;9.320;2023-03-15T01:47:28;59048.13;;;-144.85;100.00
23446;BME280;11895;48.738;9.320;2023-03-15T01:50:59;59048.13;;;-144.85;100.00
23446;BME280;11895;48.738;9.320;2023-03-15T01:54:30;59048.13;;;-144.85;100.00
23446;BME280;11895;48.738;9.320;2023-03-15T01:58:05;59048.13;;;-144.85;100.00
23446;BME280;11895;48.738;9.320;2023-03-15T02:01:37;59048.13;;;-144.85;100.00
23446;BME280;11895;48.738;9.320;2023-03-15T02:05:14;59048.13;;;-144.85;100.00
23446;BME280;11895;48.738;9.320;2023-03-15T02:08:52;59048.13;;;-144.85;100.00
23446;BME280;11895;48.738;9.320;2023-03-15T02:18:39;59048.13;;;-144.85;100.00
23446;BME280;11895;48.738;9.320;2023-03-15T02:22:11;59048.13;;;-144.85;100.00
23446;BME280;11895;48.738;9.320;2023-03-15T02:26:02;59048.13;;;-144.85;100.00
23446;BME280;11895;48.738;9.320;2023-03-15T02:29:31;59048.13;;;-144.85;100.00
23446;BME280;11895;48.738;9.320;2023-03-15T02:32:57;59048.13;;;-144.85;100.00
23446;BME280;11895;48.738;9.320;2023-03-15T02:36:26;59048.13;;;-144.85;100.00
23446;BME280;11895;48.738;9.320;2023-03-15T02:39:54;59048.13;;;-144.85;100.00
23446;BME280;11895;48.738;9.320;2023-03-15T02:43:22;59048.13;;;-144.85;100.00
23446;BME280;11895;48.738;9.320;2023-03-15T02:46:51;59048.13;;;-144.85;100.00
23446;BME280;11895;48.738;9.320;2023-03-15T02:50:20;59048.13;;;-144.85;100.00
23446;BME280;11895;48.738;9.320;2023-03-15T02:53:46;59048.13;;;-144.85;100.00
23446;BME280;11895;48.738;9.320;2023-03-15T02:57:13;59048.13;;;-144.85;100.00
23446;BME280;11895;48.738;9.320;2023-03-15T03:00:42;59048.13;;;-144.85;100.00
23446;BME280;11895;48.738;9.320;2023-03-15T03:04:08;59048.13;;;-144.85;100.00
23446;BME280;11895;48.738;9.320;2023-03-15T03:07:34;59048.13;;;-144.85;100.00
23446;BME280;11895;48.738;9.320;2023-03-15T03:11:03;59048.13;;;-144.85;100.00
23446;BME280;11895;48.738;9.320;2023-03-15T03:14:29;59048.13;;;-144.85;100.00
23446;BME280;11895;48.738;9.320;2023-03-15T03:17:56;59048.13;;;-144.85;100.00
23446;BME280;11895;48.738;9.320;2023-03-15T03:21:21;59048.13;;;-144.85;100.00
23446;BME280;11895;48.738;9.320;2023-03-15T03:24:47;59048.13;;;-144.85;100.00
23446;BME280;11895;48.738;9.320;2023-03-15T03:28:14;59048.13;;;-144.85;100.00
23446;BME280;11895;48.738;9.320;2023-03-15T03:31:39;59048.13;;;-144.85;100.00
23446;BME280;11895;48.738;9.320;2023-03-15T03:35:08;59048.13;;;-144.85;100.00
23446;BME280;11895;48.738;9.320;2023-03-15T03:38:34;59048.13;;;-144.85;100.00
23446;BME280;11895;48.738;9.320;2023-03-15T03:41:59;59048.13;;;-144.85;100.00
23446;BME280;11895;48.738;9.320;2023-03-15T03:45:26;59048.13;;;-144.85;100.00
23446;BME280;11895;48.738;9.320;2023-03-15T03:48:55;59048.13;;;-144.85;100.00
23446;BME280;11895;48.738;9.320;2023-03-15T03:52:20;59048.13;;;-144.85;100.00
23446;BME280;11895;48.738;9.320;2023-03-15T03:55:49;59048.13;;;-144.85;100.00
23446;BME280;11895;48.738;9.320;2023-03-15T03:59:18;59048.13;;;-144.85;100.00
23446;BME280;11895;48.738;9.320;2023-03-15T04:02:51;59048.13;;;-144.85;100.00
23446;BME280;11895;48.738;9.320;2023-03-15T04:06:18;59048.13;;;-144.85;100.00
23446;BME280;11895;48.738;9.320;2023-03-15T04:09:47;59048.13;;;-144.85;100.00
23446;BME280;11895;48.738;9.320;2023-03-15T04:13:12;59048.13;;;-144.85;100.00
23446;BME280;11895;48.738;9.320;2023-03-15T04:16:38;59048.13;;;-144.85;100.00
23446;BME280;11895;48.738;9.320;2023-03-15T04:20:07;59048.13;;;-144.85;100.00
23446;BME280;11895;48.738;9.320;2023-03-15T04:23:39;59048.13;;;-144.85;100.00
23446;BME280;11895;48.738;9.320;2023-03-15T04:27:16;59048.13;;;-144.85;100.00
23446;BME280;11895;48.738;9.320;2023-03-15T04:31:00;59048.13;;;-144.85;100.00
23446;BME280;11895;48.738;9.320;2023-03-15T04:34:49;59048.13;;;-144.85;100.00
23446;BME280;11895;48.738;9.320;2023-03-15T04:38:41;59048.13;;;-144.85;100.00
23446;BME280;11895;48.738;9.320;2023-03-15T04:42:21;59048.13;;;-144.85;100.00
23446;BME280;11895;48.738;9.320;2023-03-15T04:46:09;59048.13;;;-144.85;100.00
23446;BME280;11895;48.738;9.320;2023-03-15T04:49:50;59048.13;;;-144.85;100.00
23446;BME280;11895;48.738;9.320;2023-03-15T04:53:01;97116.66;;;12.47;100.00
23446;BME280;11895;48.738;9.320;2023-03-15T04:56:59;59048.13;;;-144.85;100.00
23446;BME280;11895;48.738;9.320;2023-03-15T04:59:42;98822.00;;;3.44;100.00
23446;BME280;11895;48.738;9.320;2023-03-15T05:02:34;98828.41;;;3.32;100.00
23446;BME280;11895;48.738;9.320;2023-03-15T05:05:25;98820.28;;;3.40;100.00
23446;BME280;11895;48.738;9.320;2023-03-15T05:08:19;98820.28;;;3.40;100.00
23446;BME280;11895;48.738;9.320;2023-03-15T05:11:13;98824.75;;;3.38;100.00
23446;BME280;11895;48.738;9.320;2023-03-15T05:13:51;98821.28;;;3.32;100.00
23446;BME280;11895;48.738;9.320;2023-03-15T05:16:37;98823.94;;;3.32;100.00
23446;BME280;11895;48.738;9.320;2023-03-15T05:19:29;98827.78;;;3.16;100.00
23446;BME280;11895;48.738;9.320;2023-03-15T05:22:20;98818.75;;;3.26;100.00
23446;BME280;11895;48.738;9.320;2023-03-15T05:25:12;98831.25;;;3.21;100.00
23446;BME280;11895;48.738;9.320;2023-03-15T05:27:59;98830.31;;;3.24;100.00
23446;BME280;11895;48.738;9.320;2023-03-15T05:30:59;98820.56;;;3.24;100.00
23446;BME280;11895;48.738;9.320;2023-03-15T05:34:04;98824.22;;;3.17;100.00
23446;BME280;11895;48.738;9.320;2023-03-15T05:36:44;98830.38;;;3.21;100.00
23446;BME280;11895;48.738;9.320;2023-03-15T05:39:11;98834.81;;;3.20;100.00
23446;BME280;11895;48.738;9.320;2023-03-15T05:42:05;98836.53;;;3.24;100.00
23446;BME280;11895;48.738;9.320;2023-03-15T05:44:47;98838.94;;;3.38;100.00
23446;BME280;11895;48.738;9.320;2023-03-15T05:47:26;98826.38;;;2.94;100.00
23446;BME280;11895;48.738;9.320;2023-03-15T05:50:13;98828.66;;;3.17;100.00
23446;BME280;11895;48.738;9.320;2023-03-15T05:52:55;98836.56;;;3.21;100.00
23446;BME280;11895;48.738;9.320;2023-03-15T05:55:32;98847.25;;;3.18;100.00
23446;BME280;11895;48.738;9.320;2023-03-15T05:58:16;98843.88;;;3.10;100.00
23446;BME280;11895;48.738;9.320;2023-03-15T06:01:03;98845.88;;;2.96;100.00
23446;BME280;11895;48.738;9.320;2023-03-15T06:03:50;98856.06;;;2.65;100.00
23446;BME280;11895;48.738;9.320;2023-03-15T06:06:22;98856.59;;;2.88;100.00
23446;BME280;11895;48.738;9.320;2023-03-15T06:08:49;98850.97;;;3.08;100.00
23446;BME280;11895;48.738;9.320;2023-03-15T06:11:17;98845.41;;;3.23;100.00
23446;BME280;11895;48.738;9.320;2023-03-15T06:13:44;98838.13;;;3.34;100.00
23446;BME280;11895;48.738;9.320;2023-03-15T06:16:23;98845.16;;;3.39;100.00
23446;BME280;11895;48.738;9.320;2023-03-15T06:18:53;98849.59;;;3.40;100.00
23446;BME280;11895;48.738;9.320;2023-03-15T06:21:20;98858.56;;;3.32;100.00
23446;BME280;11895;48.738;9.320;2023-03-15T06:23:47;98860.16;;;3.44;100.00
23446;BME280;11895;48.738;9.320;2023-03-15T06:26:15;98868.03;;;2.96;100.00
23446;BME280;11895;48.738;9.320;2023-03-15T06:28:46;98877.31;;;3.26;100.00
23446;BME280;11895;48.738;9.320;2023-03-15T06:31:14;98877.88;;;3.45;100.00
23446;BME280;11895;48.738;9.320;2023-03-15T06:33:51;98873.53;;;3.40;100.00
23446;BME280;11895;48.738;9.320;2023-03-15T06:36:18;98880.34;;;3.56;100.00
23446;BME280;11895;48.738;9.320;2023-03-15T06:38:45;98882.03;;;3.63;100.00
23446;BME280;11895;48.738;9.320;2023-03-15T06:41:12;98877.50;;;3.68;100.00
23446;BME280;11895;48.738;9.320;2023-03-15T06:43:41;98883.63;;;3.72;100.00
23446;BME280;11895;48.738;9.320;2023-03-15T06:46:08;98895.34;;;3.63;100.00
23446;BME280;11895;48.738;9.320;2023-03-15T06:48:36;98887.00;;;3.81;100.00
23446;BME280;11895;48.738;9.320;2023-03-15T06:51:03;98876.22;;;3.89;100.00
23446;BME280;11895;48.738;9.320;2023-03-15T06:53:31;98890.72;;;3.71;100.00
23446;BME280;11895;48.738;9.320;2023-03-15T06:55:59;98894.31;;;3.70;100.00
23446;BME280;11895;48.738;9.320;2023-03-15T06:58:26;98885.75;;;4.02;100.00
23446;BME280;11895;48.738;9.320;2023-03-15T07:00:53;98892.56;;;3.69;100.00
23446;BME280;11895;48.738;9.320;2023-03-15T07:03:21;98896.22;;;4.11;100.00
23446;BME280;11895;48.738;9.320;2023-03-15T07:05:49;98894.66;;;4.00;100.00
23446;BME280;11895;48.738;9.320;2023-03-15T07:08:21;98892.84;;;4.02;100.00
23446;BME280;11895;48.738;9.320;2023-03-15T07:10:50;98886.34;;;4.15;100.00
23446;BME280;11895;48.738;9.320;2023-03-15T07:13:18;98885.94;;;4.36;100.00
23446;BME280;11895;48.738;9.320;2023-03-15T07:15:50;98892.91;;;4.44;100.00
23446;BME280;11895;48.738;9.320;2023-03-15T07:18:19;98896.47;;;4.43;100.00
23446;BME280;11895;48.738;9.320;2023-03-15T07:20:46;98890.31;;;4.41;100.00
23446;BME280;11895;48.738;9.320;2023-03-15T07:23:13;98899.19;;;4.39;100.00
23446;BME280;11895;48.738;9.320;2023-03-15T07:25:40;98892.31;;;4.71;100.00
23446;BME280;11895;48.738;9.320;2023-03-15T07:28:22;98901.75;;;4.46;100.00
23446;BME280;11895;48.738;9.320;2023-03-15T07:31:00;98890.75;;;4.61;100.00
23446;BME280;11895;48.738;9.320;2023-03-15T07:33:32;98895.91;;;4.70;100.00
23446;BME280;11895;48.738;9.320;2023-03-15T07:36:02;98907.94;;;4.89;100.00
23446;BME280;11895;48.738;9.320;2023-03-15T07:38:31;98910.03;;;5.14;100.00
23446;BME280;11895;48.738;9.320;2023-03-15T07:41:04;98918.31;;;5.03;100.00
23446;BME280;11895;48.738;9.320;2023-03-15T07:43:33;98918.81;;;5.19;100.00
23446;BME280;11895;48.738;9.320;2023-03-15T07:46:19;98917.47;;;5.38;100.00
23446;BME280;11895;48.738;9.320;2023-03-15T07:48:46;98918.91;;;5.53;100.00
23446;BME280;11895;48.738;9.320;2023-03-15T07:51:14;98922.88;;;5.73;100.00
23446;BME280;11895;48.738;9.320;2023-03-15T07:53:42;98918.84;;;5.90;100.00
23446;BME280;11895;48.738;9.320;2023-03-15T07:56:09;98918.13;;;5.48;100.00
23446;BME280;11895;48.738;9.320;2023-03-15T07:58:37;98923.75;;;5.36;100.00
23446;BME280;11895;48.738;9.320;2023-03-15T08:01:04;98926.09;;;5.50;100.00
23446;BME280;11895;48.738;9.320;2023-03-15T08:03:32;98925.31;;;5.09;100.00
23446;BME280;11895;48.738;9.320;2023-03-15T08:05:59;98920.97;;;5.42;100.00
23446;BME280;11895;48.738;9.320;2023-03-15T08:08:26;98918.22;;;5.79;100.00
23446;BME280;11895;48.738;9.320;2023-03-15T08:10:54;98921.91;;;5.75;100.00
23446;BME280;11895;48.738;9.320;2023-03-15T08:13:22;98928.25;;;6.07;100.00
23446;BME280;11895;48.738;9.320;2023-03-15T08:15:50;98927.75;;;6.25;100.00
23446;BME280;11895;48.738;9.320;2023-03-15T08:18:20;98939.81;;;6.07;100.00
23446;BME280;11895;48.738;9.320;2023-03-15T08:20:47;98929.38;;;5.98;100.00
23446;BME280;11895;48.738;9.320;2023-03-15T08:23:14;98933.28;;;6.19;100.00
23446;BME280;11895;48.738;9.320;2023-03-15T08:25:43;98937.59;;;6.25;100.00
23446;BME280;11895;48.738;9.320;2023-03-15T08:28:10;98936.78;;;6.21;100.00
23446;BME280;11895;48.738;9.320;2023-03-15T08:30:38;98920.81;;;6.18;100.00
23446;BME280;11895;48.738;9.320;2023-03-15T08:33:06;98944.59;;;5.95;100.00
23446;BME280;11895;48.738;9.320;2023-03-15T08:35:33;98938.28;;;6.31;100.00
23446;BME280;11895;48.738;9.320;2023-03-15T08:38:01;98940.56;;;6.12;100.00
23446;BME280;11895;48.738;9.320;2023-03-15T08:40:29;98931.25;;;6.27;100.00
23446;BME280;11895;48.738;9.320;2023-03-15T08:42:57;98932.94;;;6.31;100.00
23446;BME280;11895;48.738;9.320;2023-03-15T08:46:22;59048.13;;;-144.85;100.00
23446;BME280;11895;48.738;9.320;2023-03-15T08:49:48;59048.13;;;-144.85;100.00
23446;BME280;11895;48.738;9.320;2023-03-15T08:52:23;98932.94;;;6.31;100.00
23446;BME280;11895;48.738;9.320;2023-03-15T08:55:48;59048.13;;;-144.85;100.00
23446;BME280;11895;48.738;9.320;2023-03-15T08:59:14;59048.13;;;-144.85;100.00
23446;BME280;11895;48.738;9.320;2023-03-15T09:02:56;59048.13;;;-144.85;100.00
23446;BME280;11895;48.738;9.320;2023-03-15T09:06:22;59048.13;;;-144.85;100.00
23446;BME280;11895;48.738;9.320;2023-03-15T09:09:48;59048.13;;;-144.85;100.00
23446;BME280;11895;48.738;9.320;2023-03-15T09:13:14;59048.13;;;-144.85;100.00
23446;BME280;11895;48.738;9.320;2023-03-15T09:16:40;59048.13;;;-144.85;100.00
23446;BME280;11895;48.738;9.320;2023-03-15T09:20:06;59048.13;;;-144.85;100.00
23446;BME280;11895;48.738;9.320;2023-03-15T09:23:41;59048.13;;;-144.85;100.00
23446;BME280;11895;48.738;9.320;2023-03-15T09:27:06;59048.13;;;-144.85;100.00
23446;BME280;11895;48.738;9.320;2023-03-15T09:30:32;59048.13;;;-144.85;100.00
23446;BME280;11895;48.738;9.320;2023-03-15T09:33:59;59048.13;;;-144.85;100.00
23446;BME280;11895;48.738;9.320;2023-03-15T09:37:24;59048.13;;;-144.85;100.00
23446;BME280;11895;48.738;9.320;2023-03-15T09:40:50;59048.13;;;-144.85;100.00
23446;BME280;11895;48.738;9.320;2023-03-15T09:44:36;59048.13;;;-144.85;100.00
23446;BME280;11895;48.738;9.320;2023-03-15T09:48:53;59048.13;;;-144.85;100.00
23446;BME280;11895;48.738;9.320;2023-03-15T09:52:44;59048.13;;;-144.85;100.00
23446;BME280;11895;48.738;9.320;2023-03-15T09:56:24;59048.13;;;-144.85;100.00
23446;BME280;11895;48.738;9.320;2023-03-15T09:59:55;59048.13;;;-144.85;100.00
23446;BME280;11895;48.738;9.320;2023-03-15T10:07:05;59048.13;;;-144.85;100.00
23446;BME280;11895;48.738;9.320;2023-03-15T10:09:43;98932.94;;;6.31;100.00
23446;BME280;11895;48.738;9.320;2023-03-15T10:20:45;98970.88;;;8.70;81.67
23446;BME280;11895;48.738;9.320;2023-03-15T10:24:00;98965.66;;;8.67;82.55
23446;BME280;11895;48.738;9.320;2023-03-15T10:26:34;98974.66;;;8.64;82.16
23446;BME280;11895;48.738;9.320;2023-03-15T10:29:11;98970.31;;;8.62;85.72
23446;BME280;11895;48.738;9.320;2023-03-15T10:31:44;98965.91;;;9.08;83.54
23446;BME280;11895;48.738;9.320;2023-03-15T10:34:15;98963.03;;;9.36;75.19
23446;BME280;11895;48.738;9.320;2023-03-15T10:36:47;98968.81;;;9.01;74.21
23446;BME280;11895;48.738;9.320;2023-03-15T10:39:21;98959.25;;;8.71;79.97
23446;BME280;11895;48.738;9.320;2023-03-15T10:41:49;98951.38;;;8.90;80.35
23446;BME280;11895;48.738;9.320;2023-03-15T10:44:19;98950.63;;;8.85;77.41
23446;BME280;11895;48.738;9.320;2023-03-15T10:47:07;98955.63;;;8.72;74.81
23446;BME280;11895;48.738;9.320;2023-03-15T10:49:55;98949.75;;;8.84;75.70
23446;BME280;11895;48.738;9.320;2023-03-15T10:55:10;98957.38;;;9.43;65.05
23446;BME280;11895;48.738;9.320;2023-03-15T10:57:54;98959.72;;;9.06;59.69
23446;BME280;11895;48.738;9.320;2023-03-15T11:00:32;98951.47;;;8.87;68.57
23446;BME280;11895;48.738;9.320;2023-03-15T11:03:15;98949.50;;;9.37;69.01
23446;BME280;11895;48.738;9.320;2023-03-15T11:05:46;98952.00;;;9.20;63.87
23446;BME280;11895;48.738;9.320;2023-03-15T11:08:36;98956.78;;;9.57;66.50
23446;BME280;11895;48.738;9.320;2023-03-15T11:11:06;98944.06;;;9.62;65.94
23446;BME280;11895;48.738;9.320;2023-03-15T11:13:37;98947.78;;;9.80;59.36
23446;BME280;11895;48.738;9.320;2023-03-15T11:16:06;98942.88;;;10.12;58.83
23446;BME280;11895;48.738;9.320;2023-03-15T11:18:57;98925.88;;;10.11;58.52
23446;BME280;11895;48.738;9.320;2023-03-15T11:21:30;98934.38;;;10.00;58.38
23446;BME280;11895;48.738;9.320;2023-03-15T11:24:01;98931.78;;;9.77;60.06
23446;BME280;11895;48.738;9.320;2023-03-15T11:26:35;98932.97;;;9.02;60.14
23446;BME280;11895;48.738;9.320;2023-03-15T11:29:29;98937.03;;;9.13;59.89
23446;BME280;11895;48.738;9.320;2023-03-15T11:32:22;98937.88;;;9.15;59.46
23446;BME280;11895;48.738;9.320;2023-03-15T11:35:21;98924.53;;;9.35;59.78
23446;BME280;11895;48.738;9.320;2023-03-15T11:38:13;98922.53;;;9.40;57.02
23446;BME280;11895;48.738;9.320;2023-03-15T11:40:52;98919.78;;;9.64;57.05
23446;BME280;11895;48.738;9.320;2023-03-15T11:43:55;98921.47;;;10.09;62.39
23446;BME280;11895;48.738;9.320;2023-03-15T11:46:38;98917.31;;;10.01;61.99
23446;BME280;11895;48.738;9.320;2023-03-15T11:51:54;98920.25;;;9.95;64.90
23446;BME280;11895;48.738;9.320;2023-03-15T11:54:24;98907.34;;;10.03;61.47
23446;BME280;11895;48.738;9.320;2023-03-15T11:57:04;98907.06;;;10.32;64.54
23446;BME280;11895;48.738;9.320;2023-03-15T11:59:37;98905.72;;;9.99;59.69
23446;BME280;11895;48.738;9.320;2023-03-15T12:05:03;98913.16;;;9.50;61.95
23446;BME280;11895;48.738;9.320;2023-03-15T12:07:58;98905.56;;;9.60;66.46
23446;BME280;11895;48.738;9.320;2023-03-15T12:10:32;98911.88;;;9.37;66.58
23446;BME280;11895;48.738;9.320;2023-03-15T12:14:41;59048.13;;;-144.85;100.00
23446;BME280;11895;48.738;9.320;2023-03-15T12:18:40;59048.13;;;-144.85;100.00
23446;BME280;11895;48.738;9.320;2023-03-15T12:21:52;98911.88;;;9.37;66.58
23446;BME280;11895;48.738;9.320;2023-03-15T12:25:31;59048.13;;;-144.85;100.00
23446;BME280;11895;48.738;9.320;2023-03-15T12:29:19;59048.13;;;-144.85;100.00
23446;BME280;11895;48.738;9.320;2023-03-15T12:32:48;59048.13;;;-144.85;100.00
23446;BME280;11895;48.738;9.320;2023-03-15T12:36:35;59048.13;;;-144.85;100.00
23446;BME280;11895;48.738;9.320;2023-03-15T12:43:44;59048.13;;;-144.85;100.00
23446;BME280;11895;48.738;9.320;2023-03-15T12:47:42;59048.13;;;-144.85;100.00
23446;BME280;11895;48.738;9.320;2023-03-15T12:55:21;59048.13;;;-144.85;100.00
23446;BME280;11895;48.738;9.320;2023-03-15T12:57:51;98905.53;;;12.82;46.93
23446;BME280;11895;48.738;9.320;2023-03-15T13:00:21;98910.00;;;12.66;44.72
23446;BME280;11895;48.738;9.320;2023-03-15T13:03:11;98920.06;;;11.76;49.96
23446;BME280;11895;48.738;9.320;2023-03-15T13:06:08;98917.22;;;11.60;49.50
23446;BME280;11895;48.738;9.320;2023-03-15T13:11:35;98926.88;;;11.28;52.12
23446;BME280;11895;48.738;9.320;2023-03-15T13:23:29;98948.75;;;11.03;80.88
23446;BME280;11895;48.738;9.320;2023-03-15T13:29:13;98929.88;;;10.64;97.04
23446;BME280;11895;48.738;9.320;2023-03-15T13:32:14;98939.72;;;11.23;94.16
23446;BME280;11895;48.738;9.320;2023-03-15T13:34:44;98930.00;;;11.56;95.35
23446;BME280;11895;48.738;9.320;2023-03-15T13:37:23;98930.91;;;11.74;89.57
23446;BME280;11895;48.738;9.320;2023-03-15T13:40:00;98936.63;;;11.68;89.18
23446;BME280;11895;48.738;9.320;2023-03-15T13:42:29;98943.56;;;11.36;87.28
23446;BME280;11895;48.738;9.320;2023-03-15T13:47:44;98943.63;;;11.53;90.75
23446;BME280;11895;48.738;9.320;2023-03-15T13:50:14;98945.44;;;11.15;92.64
23446;BME280;11895;48.738;9.320;2023-03-15T13:52:43;98946.84;;;11.24;93.10
23446;BME280;11895;48.738;9.320;2023-03-15T13:55:18;98941.47;;;11.43;91.12
23446;BME280;11895;48.738;9.320;2023-03-15T13:57:56;98946.72;;;11.27;96.72
23446;BME280;11895;48.738;9.320;2023-03-15T14:00:26;98947.88;;;11.02;96.33
23446;BME280;11895;48.738;9.320;2023-03-15T14:03:01;98945.75;;;11.28;97.15
23446;BME280;11895;48.738;9.320;2023-03-15T14:05:45;98946.38;;;10.95;94.68
23446;BME280;11895;48.738;9.320;2023-03-15T14:08:19;98954.78;;;10.69;97.33
23446;BME280;11895;48.738;9.320;2023-03-15T14:11:06;98957.06;;;10.58;100.00
23446;BME280;11895;48.738;9.320;2023-03-15T14:13:54;98963.59;;;10.52;99.79
23446;BME280;11895;48.738;9.320;2023-03-15T14:16:38;98971.06;;;9.81;100.00
23446;BME280;11895;48.738;9.320;2023-03-15T14:19:34;98962.94;;;9.61;100.00
23446;BME280;11895;48.738;9.320;2023-03-15T14:22:12;98959.28;;;10.05;100.00
23446;BME280;11895;48.738;9.320;2023-03-15T14:24:43;98959.16;;;11.11;100.00
23446;BME280;11895;48.738;9.320;2023-03-15T14:27:17;98942.50;;;12.82;100.00
23446;BME280;11895;48.738;9.320;2023-03-15T14:29:54;98947.53;;;14.48;87.56
23446;BME280;11895;48.738;9.320;2023-03-15T14:32:34;98935.59;;;17.12;53.91
23446;BME280;11895;48.738;9.320;2023-03-15T14:35:16;98935.09;;;17.44;46.01
23446;BME280;11895;48.738;9.320;2023-03-15T14:40:37;98930.59;;;15.87;49.02
23446;BME280;11895;48.738;9.320;2023-03-15T14:43:06;98937.22;;;15.83;52.99
23446;BME280;11895;48.738;9.320;2023-03-15T14:45:34;98933.06;;;17.09;45.38
23446;BME280;11895;48.738;9.320;2023-03-15T14:48:06;98936.63;;;16.32;46.41
23446;BME280;11895;48.738;9.320;2023-03-15T14:50:39;98937.38;;;16.34;47.70
23446;BME280;11895;48.738;9.320;2023-03-15T14:53:11;98944.28;;;18.16;47.41
23446;BME280;11895;48.738;9.320;2023-03-15T14:55:44;98939.66;;;17.56;44.02
23446;BME280;11895;48.738;9.320;2023-03-15T14:58:21;98943.50;;;17.41;44.04
23446;BME280;11895;48.738;9.320;2023-03-15T15:00:53;98945.47;;;16.35;46.19
23446;BME280;11895;48.738;9.320;2023-03-15T15:06:00;98945.78;;;14.31;57.11
23446;BME280;11895;48.738;9.320;2023-03-15T15:08:30;98952.97;;;13.86;64.04
23446;BME280;11895;48.738;9.320;2023-03-15T15:10:58;98961.75;;;13.09;72.33
23446;BME280;11895;48.738;9.320;2023-03-15T15:13:28;98972.25;;;12.65;90.35
23446;BME280;11895;48.738;9.320;2023-03-15T15:15:56;98981.03;;;11.80;100.00
23446;BME280;11895;48.738;9.320;2023-03-15T15:18:28;98983.03;;;10.99;100.00
23446;BME280;11895;48.738;9.320;2023-03-15T15:20:59;99001.78;;;10.41;100.00
23446;BME280;11895;48.738;9.320;2023-03-15T15:23:31;99010.06;;;9.47;100.00
23446;BME280;11895;48.738;9.320;2023-03-15T15:26:04;99009.25;;;9.22;100.00
23446;BME280;11895;48.738;9.320;2023-03-15T15:28:32;99019.88;;;9.01;100.00
23446;BME280;11895;48.738;9.320;2023-03-15T15:31:05;99020.28;;;8.66;100.00
23446;BME280;11895;48.738;9.320;2023-03-15T15:33:33;99035.75;;;8.31;100.00
23446;BME280;11895;48.738;9.320;2023-03-15T15:36:00;99050.84;;;7.81;100.00
23446;BME280;11895;48.738;9.320;2023-03-15T15:38:32;99056.81;;;7.31;100.00
23446;BME280;11895;48.738;9.320;2023-03-15T15:41:10;99053.88;;;6.77;100.00
23446;BME280;11895;48.738;9.320;2023-03-15T15:43:41;99061.72;;;6.52;100.00
23446;BME280;11895;48.738;9.320;2023-03-15T15:46:11;99061.72;;;6.52;100.00
23446;BME280;11895;48.738;9.320;2023-03-15T15:49:37;59048.13;;;-144.85;100.00
23446;BME280;11895;48.738;9.320;2023-03-15T15:53:09;59048.13;;;-144.85;100.00
23446;BME280;11895;48.738;9.320;2023-03-15T15:56:40;59048.13;;;-144.85;100.00
23446;BME280;11895;48.738;9.320;2023-03-15T15:59:19;99061.72;;;6.52;100.00
23446;BME280;11895;48.738;9.320;2023-03-15T16:01:51;99061.72;;;6.52;100.00
23446;BME280;11895;48.738;9.320;2023-03-15T16:04:27;99068.31;;;7.04;100.00
23446;BME280;11895;48.738;9.320;2023-03-15T16:06:57;99073.50;;;7.10;100.00
23446;BME280;11895;48.738;9.320;2023-03-15T16:09:27;99077.19;;;7.06;100.00
23446;BME280;11895;48.738;9.320;2023-03-15T16:12:10;99077.19;;;7.06;100.00
23446;BME280;11895;48.738;9.320;2023-03-15T16:15:03;59048.13;;;-144.85;100.00
23446;BME280;11895;48.738;9.320;2023-03-15T16:20:49;99085.69;;;6.89;100.00